createdAt,value
2019-02-18T00:00:25.227Z,49.00
2019-02-18T00:01:56.515Z,39.93
2019-02-18T00:03:28.108Z,38.13
2019-02-18T00:04:59.570Z,36.37
2019-02-18T00:06:31.404Z,41.60
2019-02-18T00:08:03.278Z,41.33
2019-02-18T00:09:35.194Z,35.70
2019-02-18T00:11:06.577Z,39.93
2019-02-18T00:12:38.210Z,34.90
2019-02-18T00:14:09.513Z,39.17
2019-02-18T00:15:40.824Z,39.63
2019-02-18T00:17:12.177Z,41.30
2019-02-18T00:18:43.974Z,44.10
2019-02-18T00:20:15.282Z,42.90
2019-02-18T00:21:46.865Z,43.87
2019-02-18T00:23:18.186Z,42.33
2019-02-18T00:24:49.483Z,42.27
2019-02-18T00:26:20.790Z,37.63
2019-02-18T00:27:52.646Z,36.80
2019-02-18T00:29:24.050Z,33.63
2019-02-18T00:30:55.886Z,38.67
2019-02-18T00:32:27.174Z,35.30
2019-02-18T00:33:58.843Z,34.23
2019-02-18T00:35:30.187Z,41.83
2019-02-18T00:37:01.676Z,45.83
2019-02-18T00:38:32.999Z,51.93
2019-02-18T00:40:04.874Z,47.10
2019-02-18T00:41:36.779Z,43.78
2019-02-18T00:43:08.631Z,43.13
2019-02-18T00:44:41.102Z,38.70
2019-02-18T00:46:12.417Z,40.43
2019-02-18T00:47:43.735Z,40.63
2019-02-18T00:49:15.825Z,39.98
2019-02-18T00:50:47.160Z,44.10
2019-02-18T00:52:18.894Z,36.83
2019-02-18T00:53:50.210Z,35.33
2019-02-18T00:55:21.498Z,36.30
2019-02-18T00:56:52.825Z,36.90
2019-02-18T00:58:24.371Z,38.23
2019-02-18T00:59:55.691Z,38.37
2019-02-18T01:01:27.001Z,40.87
2019-02-18T01:02:58.351Z,36.37
2019-02-18T01:04:30.147Z,42.00
2019-02-18T01:06:01.455Z,38.43
2019-02-18T01:07:35.133Z,38.93
2019-02-18T01:09:06.261Z,41.17
2019-02-18T01:10:37.551Z,35.97
2019-02-18T01:12:09.459Z,38.17
2019-02-18T01:13:41.237Z,35.80
2019-02-18T01:15:12.575Z,37.20
2019-02-18T01:16:43.935Z,39.30
2019-02-18T01:18:15.232Z,43.37
2019-02-18T01:19:46.978Z,52.10
2019-02-18T01:21:18.320Z,41.93
2019-02-18T01:22:50.145Z,39.40
2019-02-18T01:24:21.434Z,39.53
2019-02-18T01:25:52.741Z,41.50
2019-02-18T01:27:24.061Z,42.80
2019-02-18T01:28:55.713Z,45.33
2019-02-18T01:30:27.025Z,39.77
2019-02-18T01:31:58.325Z,60.37
2019-02-18T01:33:29.723Z,52.57
2019-02-18T01:35:01.717Z,48.85
2019-02-18T01:36:33.097Z,40.17
2019-02-18T01:38:04.881Z,40.20
2019-02-18T01:39:36.166Z,46.27
2019-02-18T01:41:07.514Z,47.57
2019-02-18T01:42:38.830Z,41.33
2019-02-18T01:44:10.662Z,56.13
2019-02-18T01:45:41.967Z,51.57
2019-02-18T01:47:13.311Z,54.70
2019-02-18T01:48:44.597Z,49.57
2019-02-18T01:50:16.127Z,50.40
2019-02-18T01:51:47.425Z,40.10
2019-02-18T01:53:19.011Z,33.83
2019-02-18T01:54:50.342Z,37.53
2019-02-18T01:56:21.667Z,40.57
2019-02-18T01:57:52.943Z,51.80
2019-02-18T01:59:24.591Z,53.70
2019-02-18T02:00:55.905Z,54.53
2019-02-18T02:02:27.269Z,53.87
2019-02-18T02:03:58.538Z,60.03
2019-02-18T02:05:30.166Z,49.93
2019-02-18T02:07:01.489Z,56.83
2019-02-18T02:08:33.260Z,50.67
2019-02-18T02:10:04.538Z,60.50
2019-02-18T02:11:35.851Z,60.10
2019-02-18T02:13:07.162Z,44.47
2019-02-18T02:14:39.032Z,39.23
2019-02-18T02:16:10.336Z,43.60
2019-02-18T02:17:41.645Z,37.40
2019-02-18T02:19:12.992Z,35.37
2019-02-18T02:20:44.504Z,33.60
2019-02-18T02:22:15.825Z,38.50
2019-02-18T02:23:47.486Z,36.60
2019-02-18T02:25:18.811Z,37.57
2019-02-18T02:26:50.131Z,37.67
2019-02-18T02:28:21.460Z,36.90
2019-02-18T02:29:53.079Z,39.93
2019-02-18T02:31:24.426Z,37.63
2019-02-18T02:32:55.713Z,35.60
2019-02-18T02:34:27.053Z,39.63
2019-02-18T02:35:58.612Z,39.17
2019-02-18T02:37:29.887Z,41.27
2019-02-18T02:39:01.512Z,38.13
2019-02-18T02:40:33.443Z,36.08
2019-02-18T02:42:04.746Z,35.20
2019-02-18T02:43:36.065Z,34.57
2019-02-18T02:45:08.520Z,38.55
2019-02-18T02:46:39.881Z,41.83
2019-02-18T02:48:11.163Z,35.00
2019-02-18T02:49:43.062Z,36.85
2019-02-18T02:51:15.310Z,45.33
2019-02-18T02:52:46.746Z,40.13
2019-02-18T02:54:18.502Z,33.10
2019-02-18T02:55:50.394Z,35.03
2019-02-18T02:57:21.744Z,37.37
2019-02-18T02:58:53.055Z,35.00
2019-02-18T03:00:25.234Z,44.18
2019-02-18T03:01:56.516Z,37.73
2019-02-18T03:03:28.469Z,44.05
2019-02-18T03:05:00.504Z,46.28
2019-02-18T03:06:32.989Z,56.58
2019-02-18T03:08:04.895Z,54.25
2019-02-18T03:09:36.795Z,42.90
2019-02-18T03:11:08.679Z,39.35
2019-02-18T03:12:41.061Z,48.13
2019-02-18T03:14:12.459Z,35.37
2019-02-18T03:15:43.739Z,35.93
2019-02-18T03:17:15.041Z,39.50
2019-02-18T03:18:46.622Z,37.47
2019-02-18T03:20:18.607Z,34.85
2019-02-18T03:21:50.485Z,45.30
2019-02-18T03:23:22.392Z,34.50
2019-02-18T03:24:54.535Z,34.67
2019-02-18T03:26:25.849Z,36.43
2019-02-18T03:27:57.147Z,33.27
2019-02-18T03:29:28.498Z,39.10
2019-02-18T03:31:00.118Z,31.87
2019-02-18T03:32:31.413Z,37.23
2019-02-18T03:34:02.742Z,33.77
2019-02-18T03:35:34.102Z,44.73
2019-02-18T03:37:05.591Z,69.13
2019-02-18T03:38:36.894Z,68.53
2019-02-18T03:40:08.208Z,61.73
2019-02-18T03:41:41.006Z,73.97
2019-02-18T03:43:12.926Z,71.53
2019-02-18T03:44:44.217Z,66.97
2019-02-18T03:46:15.515Z,76.23
2019-02-18T03:47:46.856Z,81.97
2019-02-18T03:49:18.354Z,86.27
2019-02-18T03:50:49.641Z,85.73
2019-02-18T03:52:20.946Z,83.50
2019-02-18T03:53:52.319Z,71.33
2019-02-18T03:55:23.756Z,83.23
2019-02-18T03:56:55.022Z,79.77
2019-02-18T03:58:26.331Z,83.60
2019-02-18T03:59:57.700Z,58.27
2019-02-18T04:01:29.232Z,36.70
2019-02-18T04:03:00.585Z,35.17
2019-02-18T04:04:31.876Z,48.53
2019-02-18T04:06:03.170Z,44.07
2019-02-18T04:07:34.763Z,45.57
2019-02-18T04:09:06.136Z,42.37
2019-02-18T04:10:37.421Z,48.37
2019-02-18T04:12:08.710Z,54.47
2019-02-18T04:13:40.329Z,54.80
2019-02-18T04:15:11.648Z,57.73
2019-02-18T04:16:43.536Z,50.63
2019-02-18T04:18:15.400Z,55.30
2019-02-18T04:19:47.439Z,52.40
2019-02-18T04:21:19.299Z,50.92
2019-02-18T04:22:51.217Z,55.55
2019-02-18T04:24:22.590Z,57.30
2019-02-18T04:25:54.754Z,56.08
2019-02-18T04:27:26.034Z,59.97
2019-02-18T04:28:57.935Z,53.30
2019-02-18T04:30:29.247Z,55.80
2019-02-18T04:32:00.722Z,52.83
2019-02-18T04:33:32.008Z,47.03
2019-02-18T04:35:03.304Z,44.37
2019-02-18T04:36:34.592Z,51.27
2019-02-18T04:38:06.127Z,42.00
2019-02-18T04:39:37.415Z,40.73
2019-02-18T04:41:09.686Z,37.70
2019-02-18T04:42:41.060Z,38.27
2019-02-18T04:44:12.348Z,42.93
2019-02-18T04:45:43.655Z,35.30
2019-02-18T04:47:15.408Z,39.13
2019-02-18T04:48:46.774Z,38.53
2019-02-18T04:50:18.053Z,37.33
2019-02-18T04:51:49.354Z,43.90
2019-02-18T04:53:21.146Z,40.27
2019-02-18T04:54:52.445Z,46.70
2019-02-18T04:56:24.146Z,60.70
2019-02-18T04:57:55.454Z,52.57
2019-02-18T04:59:26.823Z,54.47
2019-02-18T05:00:58.145Z,47.13
2019-02-18T05:02:29.933Z,54.33
2019-02-18T05:04:01.219Z,59.13
2019-02-18T05:05:32.652Z,56.37
2019-02-18T05:07:03.912Z,52.27
2019-02-18T05:08:35.690Z,55.77
2019-02-18T05:10:07.015Z,44.87
2019-02-18T05:11:38.507Z,40.50
2019-02-18T05:13:09.814Z,40.30
2019-02-18T05:14:41.103Z,34.53
2019-02-18T05:16:13.026Z,46.95
2019-02-18T05:17:44.859Z,37.93
2019-02-18T05:19:16.153Z,43.13
2019-02-18T05:20:47.460Z,55.30
2019-02-18T05:22:18.825Z,49.63
2019-02-18T05:23:50.430Z,42.60
2019-02-18T05:25:21.726Z,37.50
2019-02-18T05:26:53.147Z,44.73
2019-02-18T05:28:24.493Z,49.57
2019-02-18T05:29:55.803Z,43.03
2019-02-18T05:31:27.092Z,49.07
2019-02-18T05:32:58.589Z,53.30
2019-02-18T05:34:29.943Z,52.70
2019-02-18T05:36:01.227Z,56.63
2019-02-18T05:37:32.534Z,66.87
2019-02-18T05:39:04.173Z,70.27
2019-02-18T05:40:35.457Z,58.47
2019-02-18T05:42:07.151Z,62.33
2019-02-18T05:43:38.467Z,74.57
2019-02-18T05:45:10.992Z,75.13
2019-02-18T05:46:42.378Z,69.40
2019-02-18T05:48:14.042Z,76.60
2019-02-18T05:49:45.377Z,70.33
2019-02-18T05:51:16.655Z,71.27
2019-02-18T05:52:47.973Z,58.67
2019-02-18T05:54:19.607Z,47.50
2019-02-18T05:55:50.924Z,52.30
2019-02-18T05:57:22.885Z,44.27
2019-02-18T05:58:54.433Z,50.37
2019-02-18T06:00:26.122Z,62.53
2019-02-18T06:01:57.406Z,54.07
2019-02-18T06:03:28.705Z,58.13
2019-02-18T06:04:59.992Z,56.60
2019-02-18T06:06:31.781Z,48.70
2019-02-18T06:08:03.097Z,216.97
2019-02-18T06:09:34.380Z,87.10
2019-02-18T06:11:05.697Z,93.87
2019-02-18T06:12:37.331Z,58.83
2019-02-18T06:14:09.223Z,55.45
2019-02-18T06:15:40.543Z,57.37
2019-02-18T06:17:11.827Z,86.40
2019-02-18T06:18:43.383Z,62.83
2019-02-18T06:20:14.637Z,55.30
2019-02-18T06:21:45.959Z,55.33
2019-02-18T06:23:17.277Z,51.27
2019-02-18T06:24:48.896Z,52.23
2019-02-18T06:26:20.246Z,63.77
2019-02-18T06:27:51.887Z,68.00
2019-02-18T06:29:23.205Z,67.00
2019-02-18T06:30:55.119Z,66.42
2019-02-18T06:32:27.016Z,65.55
2019-02-18T06:33:59.075Z,64.55
2019-02-18T06:35:30.376Z,80.57
2019-02-18T06:37:01.754Z,79.10
2019-02-18T06:38:33.050Z,61.87
2019-02-18T06:40:04.651Z,65.40
2019-02-18T06:41:36.002Z,66.60
2019-02-18T06:43:07.550Z,70.87
2019-02-18T06:44:39.427Z,70.15
2019-02-18T06:46:10.746Z,66.93
2019-02-18T06:47:42.031Z,62.83
2019-02-18T06:49:13.629Z,54.47
2019-02-18T06:50:44.933Z,50.30
2019-02-18T06:52:16.237Z,51.30
2019-02-18T06:53:47.528Z,56.37
2019-02-18T06:55:18.970Z,50.60
2019-02-18T06:56:50.859Z,46.95
2019-02-18T06:58:22.919Z,45.45
2019-02-18T06:59:54.269Z,65.70
2019-02-18T07:01:25.611Z,85.10
2019-02-18T07:02:56.932Z,78.77
2019-02-18T07:04:28.578Z,88.00
2019-02-18T07:05:59.947Z,91.47
2019-02-18T07:07:31.243Z,80.70
2019-02-18T07:09:02.532Z,88.03
2019-02-18T07:10:34.037Z,84.30
2019-02-18T07:12:05.974Z,94.95
2019-02-18T07:13:37.538Z,91.37
2019-02-18T07:15:09.442Z,87.70
2019-02-18T07:16:40.763Z,100.70
2019-02-18T07:18:12.071Z,97.87
2019-02-18T07:19:43.834Z,93.80
2019-02-18T07:21:15.753Z,89.47
2019-02-18T07:22:47.643Z,101.87
2019-02-18T07:24:19.560Z,91.50
2019-02-18T07:25:51.679Z,81.55
2019-02-18T07:27:23.530Z,55.58
2019-02-18T07:28:55.151Z,72.83
2019-02-18T07:30:27.086Z,80.12
2019-02-18T07:31:58.407Z,79.07
2019-02-18T07:33:30.330Z,86.47
2019-02-18T07:35:02.162Z,91.90
2019-02-18T07:36:35.104Z,85.47
2019-02-18T07:38:06.997Z,86.00
2019-02-18T07:39:38.960Z,87.15
2019-02-18T07:41:10.810Z,80.57
2019-02-18T07:42:42.692Z,72.47
2019-02-18T07:44:14.818Z,74.75
2019-02-18T07:45:46.774Z,66.75
2019-02-18T07:47:18.671Z,76.28
2019-02-18T07:48:50.549Z,79.87
2019-02-18T07:50:22.948Z,80.15
2019-02-18T07:51:54.892Z,88.03
2019-02-18T07:53:26.767Z,81.47
2019-02-18T07:54:58.645Z,76.92
2019-02-18T07:56:30.967Z,72.22
2019-02-18T07:58:02.863Z,79.12
2019-02-18T07:59:35.283Z,72.72
2019-02-18T08:01:07.173Z,81.80
2019-02-18T08:02:39.130Z,84.58
2019-02-18T08:04:11.006Z,73.35
2019-02-18T08:05:42.589Z,67.50
2019-02-18T08:07:13.897Z,82.37
2019-02-18T08:08:45.849Z,78.33
2019-02-18T08:10:17.729Z,75.35
2019-02-18T08:11:50.220Z,83.30
2019-02-18T08:13:22.096Z,79.17
2019-02-18T08:14:54.450Z,76.20
2019-02-18T08:16:26.349Z,69.58
2019-02-18T08:17:58.248Z,71.82
2019-02-18T08:19:30.120Z,59.50
2019-02-18T08:21:02.563Z,62.67
2019-02-18T08:22:34.452Z,71.53
2019-02-18T08:24:06.353Z,69.35
2019-02-18T08:25:38.316Z,70.62
2019-02-18T08:27:10.486Z,71.55
2019-02-18T08:28:42.388Z,76.30
2019-02-18T08:30:14.498Z,95.70
2019-02-18T08:31:46.462Z,77.20
2019-02-18T08:33:18.345Z,66.10
2019-02-18T08:34:52.542Z,78.83
2019-02-18T08:36:24.599Z,72.58
2019-02-18T08:37:56.506Z,74.70
2019-02-18T08:39:28.425Z,81.65
2019-02-18T08:41:00.298Z,77.65
2019-02-18T08:42:34.188Z,88.85
2019-02-18T08:44:06.375Z,89.58
2019-02-18T08:45:38.582Z,87.95
2019-02-18T08:47:10.459Z,91.90
2019-02-18T08:48:42.338Z,91.80
2019-02-18T08:50:14.284Z,87.42
2019-02-18T08:51:46.500Z,91.22
2019-02-18T08:53:18.398Z,78.65
2019-02-18T08:54:56.604Z,76.77
2019-02-18T08:56:23.882Z,78.37
2019-02-18T08:57:56.254Z,82.05
2019-02-18T08:59:27.565Z,79.50
2019-02-18T09:01:02.491Z,69.20
2019-02-18T09:02:33.341Z,64.72
2019-02-18T09:04:05.242Z,68.45
2019-02-18T09:05:37.108Z,71.95
2019-02-18T09:07:09.334Z,76.85
2019-02-18T09:08:41.215Z,78.20
2019-02-18T09:10:13.074Z,78.20
2019-02-18T09:11:44.995Z,76.20
2019-02-18T09:13:17.180Z,75.75
2019-02-18T09:14:49.063Z,81.45
2019-02-18T09:16:21.095Z,78.15
2019-02-18T09:17:53.025Z,81.42
2019-02-18T09:19:24.913Z,81.42
2019-02-18T09:20:56.801Z,75.67
2019-02-18T09:22:28.998Z,79.80
2019-02-18T09:24:00.915Z,79.65
2019-02-18T09:25:32.782Z,76.45
2019-02-18T09:27:04.684Z,76.75
2019-02-18T09:28:36.926Z,76.07
2019-02-18T09:30:08.861Z,83.15
2019-02-18T09:31:42.892Z,77.58
2019-02-18T09:33:14.818Z,71.85
2019-02-18T09:34:46.754Z,68.47
2019-02-18T09:36:21.181Z,65.80
2019-02-18T09:37:52.457Z,58.50
2019-02-18T09:39:31.110Z,55.70
2019-02-18T09:40:57.904Z,44.08
2019-02-18T09:42:29.797Z,41.40
2019-02-18T09:44:01.959Z,44.70
2019-02-18T09:45:33.836Z,34.25
2019-02-18T09:47:05.861Z,42.17
2019-02-18T09:48:37.758Z,41.58
2019-02-18T09:50:09.681Z,42.73
2019-02-18T09:51:41.696Z,45.73
2019-02-18T09:53:13.865Z,43.87
2019-02-18T09:54:45.739Z,41.55
2019-02-18T09:56:17.622Z,37.38
2019-02-18T09:57:49.523Z,51.80
2019-02-18T09:59:21.597Z,42.58
2019-02-18T10:00:53.476Z,51.00
2019-02-18T10:02:25.585Z,52.40
2019-02-18T10:03:57.506Z,56.00
2019-02-18T10:05:29.737Z,63.63
2019-02-18T10:07:01.646Z,56.35
2019-02-18T10:08:34.118Z,60.65
2019-02-18T10:10:06.011Z,62.45
2019-02-18T10:11:37.902Z,67.37
2019-02-18T10:13:09.821Z,68.37
2019-02-18T10:14:41.952Z,52.88
2019-02-18T10:16:13.863Z,54.00
2019-02-18T10:17:46.059Z,58.65
2019-02-18T10:19:17.922Z,54.53
2019-02-18T10:20:49.799Z,52.03
2019-02-18T10:22:21.738Z,51.53
2019-02-18T10:23:53.816Z,45.30
2019-02-18T10:25:25.734Z,45.65
2019-02-18T10:26:57.637Z,45.33
2019-02-18T10:28:29.529Z,46.23
2019-02-18T10:30:01.692Z,50.17
2019-02-18T10:31:33.600Z,47.03
2019-02-18T10:33:05.742Z,49.23
2019-02-18T10:34:37.579Z,44.48
2019-02-18T10:36:09.469Z,50.70
2019-02-18T10:37:41.413Z,48.70
2019-02-18T10:39:13.632Z,46.37
2019-02-18T10:40:45.533Z,42.90
2019-02-18T10:42:17.430Z,42.67
2019-02-18T10:43:49.351Z,44.85
2019-02-18T10:45:21.557Z,44.25
2019-02-18T10:46:53.467Z,38.92
2019-02-18T10:48:25.717Z,35.70
2019-02-18T10:49:57.597Z,38.35
2019-02-18T10:51:29.474Z,40.90
2019-02-18T10:53:01.455Z,34.27
2019-02-18T10:54:33.603Z,37.17
2019-02-18T10:56:05.545Z,32.50
2019-02-18T10:57:37.462Z,34.85
2019-02-18T10:59:09.362Z,38.63
2019-02-18T11:00:41.532Z,33.88
2019-02-18T11:02:13.488Z,37.75
2019-02-18T11:03:45.760Z,34.92
2019-02-18T11:05:17.630Z,32.30
2019-02-18T11:06:49.528Z,36.03
2019-02-18T11:08:21.486Z,36.25
2019-02-18T11:09:53.768Z,31.97
2019-02-18T11:11:25.655Z,33.90
2019-02-18T11:12:57.529Z,31.52
2019-02-18T11:14:30.133Z,33.75
2019-02-18T11:16:02.323Z,30.88
2019-02-18T11:17:38.981Z,32.78
2019-02-18T11:19:08.082Z,39.53
2019-02-18T11:20:39.989Z,34.50
2019-02-18T11:22:11.853Z,43.33
2019-02-18T11:23:43.802Z,69.92
2019-02-18T11:25:15.898Z,43.83
2019-02-18T11:26:47.808Z,235.35
2019-02-18T11:28:19.731Z,48.23
2019-02-18T11:29:51.633Z,48.58
2019-02-18T11:31:23.927Z,66.85
2019-02-18T11:32:55.826Z,42.03
2019-02-18T11:34:28.055Z,31.73
2019-02-18T11:35:59.958Z,31.55
2019-02-18T11:37:31.831Z,32.85
2019-02-18T11:39:03.786Z,33.70
2019-02-18T11:40:35.987Z,27.27
2019-02-18T11:42:07.959Z,25.70
2019-02-18T11:43:39.842Z,36.98
2019-02-18T11:45:11.755Z,29.20
2019-02-18T11:46:43.844Z,26.30
2019-02-18T11:48:15.717Z,30.90
2019-02-18T11:49:48.009Z,31.30
2019-02-18T11:51:19.934Z,26.25
2019-02-18T11:52:51.816Z,25.82
2019-02-18T11:54:23.697Z,27.48
2019-02-18T11:55:55.787Z,33.28
2019-02-18T11:57:27.693Z,27.05
2019-02-18T11:58:59.622Z,24.32
2019-02-18T12:00:31.521Z,20.35
2019-02-18T12:02:03.750Z,24.82
2019-02-18T12:03:36.060Z,23.85
2019-02-18T12:05:08.304Z,27.55
2019-02-18T12:06:40.222Z,22.55
2019-02-18T12:08:12.137Z,25.40
2019-02-18T12:09:44.015Z,23.90
2019-02-18T12:11:16.212Z,22.80
2019-02-18T12:12:48.118Z,21.55
2019-02-18T12:14:20.011Z,27.77
2019-02-18T12:15:51.945Z,22.52
2019-02-18T12:17:24.133Z,21.97
2019-02-18T12:18:56.012Z,25.12
2019-02-18T12:20:28.152Z,25.65
2019-02-18T12:22:00.089Z,21.30
2019-02-18T12:23:32.041Z,33.60
2019-02-18T12:25:03.937Z,22.30
2019-02-18T12:26:36.179Z,21.27
2019-02-18T12:28:08.059Z,35.00
2019-02-18T12:29:39.951Z,32.08
2019-02-18T12:31:11.833Z,31.07
2019-02-18T12:32:44.083Z,26.17
2019-02-18T12:34:16.000Z,19.80
2019-02-18T12:35:48.218Z,21.02
2019-02-18T12:37:20.086Z,21.40
2019-02-18T12:38:51.973Z,29.98
2019-02-18T12:40:23.876Z,19.75
2019-02-18T12:41:56.031Z,20.48
2019-02-18T12:43:29.392Z,24.12
2019-02-18T12:45:01.669Z,19.95
2019-02-18T12:46:33.536Z,27.45
2019-02-18T12:48:05.846Z,22.25
2019-02-18T12:49:38.168Z,23.67
2019-02-18T12:51:10.431Z,26.17
2019-02-18T12:52:42.311Z,25.40
2019-02-18T12:54:14.199Z,24.05
2019-02-18T12:55:46.125Z,26.90
2019-02-18T12:57:18.361Z,22.95
2019-02-18T12:58:54.663Z,25.72
2019-02-18T13:00:23.809Z,27.05
2019-02-18T13:01:55.674Z,25.17
2019-02-18T13:03:27.816Z,25.15
2019-02-18T13:05:00.841Z,29.85
2019-02-18T13:06:33.066Z,23.65
2019-02-18T13:08:04.936Z,23.30
2019-02-18T13:09:36.848Z,24.07
2019-02-18T13:11:08.752Z,31.85
2019-02-18T13:12:40.884Z,36.23
2019-02-18T13:14:12.769Z,35.03
2019-02-18T13:15:44.647Z,28.77
2019-02-18T13:17:16.590Z,30.35
2019-02-18T13:18:48.870Z,33.33
2019-02-18T13:20:20.763Z,34.27
2019-02-18T13:21:53.027Z,37.08
2019-02-18T13:23:25.335Z,30.82
2019-02-18T13:24:57.223Z,32.45
2019-02-18T13:26:29.155Z,42.30
2019-02-18T13:28:08.307Z,30.20
2019-02-18T13:29:34.925Z,28.98
2019-02-18T13:31:06.820Z,33.25
2019-02-18T13:32:38.956Z,41.40
2019-02-18T13:34:11.312Z,42.55
2019-02-18T13:35:43.257Z,39.53
2019-02-18T13:37:15.554Z,42.80
2019-02-18T13:38:47.473Z,39.92
2019-02-18T13:40:19.368Z,40.40
2019-02-18T13:41:51.556Z,34.33
2019-02-18T13:43:23.896Z,40.98
2019-02-18T13:44:55.754Z,42.15
2019-02-18T13:46:28.067Z,39.70
2019-02-18T13:47:59.967Z,38.75
2019-02-18T13:49:32.233Z,41.98
2019-02-18T13:51:04.120Z,37.17
2019-02-18T13:52:36.562Z,39.45
2019-02-18T13:54:08.433Z,44.00
2019-02-18T13:55:40.382Z,38.40
2019-02-18T13:57:12.262Z,35.83
2019-02-18T13:58:44.278Z,46.35
2019-02-18T14:00:16.201Z,43.25
2019-02-18T14:01:48.091Z,40.23
2019-02-18T14:03:20.026Z,44.35
2019-02-18T14:04:52.179Z,41.85
2019-02-18T14:06:24.128Z,46.90
2019-02-18T14:07:56.414Z,46.73
2019-02-18T14:09:28.301Z,45.40
2019-02-18T14:11:00.185Z,47.08
2019-02-18T14:12:32.124Z,51.35
2019-02-18T14:14:04.343Z,38.02
2019-02-18T14:15:36.239Z,40.83
2019-02-18T14:17:08.139Z,35.25
2019-02-18T14:18:40.070Z,48.98
2019-02-18T14:20:13.985Z,39.65
2019-02-18T14:21:45.775Z,49.73
2019-02-18T14:23:18.013Z,40.38
2019-02-18T14:24:49.896Z,48.20
2019-02-18T14:26:21.773Z,40.58
2019-02-18T14:27:53.641Z,48.83
2019-02-18T14:29:25.834Z,41.90
2019-02-18T14:30:57.702Z,34.53
2019-02-18T14:32:29.616Z,39.53
2019-02-18T14:34:01.488Z,44.85
2019-02-18T14:35:33.958Z,34.45
2019-02-18T14:37:05.853Z,34.35
2019-02-18T14:38:38.076Z,35.52
2019-02-18T14:40:09.951Z,31.70
2019-02-18T14:41:41.890Z,34.48
2019-02-18T14:43:13.803Z,34.15
2019-02-18T14:44:45.999Z,32.45
2019-02-18T14:46:17.910Z,36.15
2019-02-18T14:47:49.854Z,39.75
2019-02-18T14:49:21.746Z,46.77
2019-02-18T14:50:56.715Z,42.53
2019-02-18T14:52:27.361Z,41.88
2019-02-18T14:53:59.609Z,40.35
2019-02-18T14:55:31.491Z,38.67
2019-02-18T14:57:03.382Z,37.70
2019-02-18T14:58:35.252Z,30.97
2019-02-18T15:00:07.510Z,31.40
2019-02-18T15:01:39.378Z,34.70
2019-02-18T15:03:11.304Z,44.85
2019-02-18T15:04:43.171Z,60.12
2019-02-18T15:06:20.669Z,50.00
2019-02-18T15:07:52.845Z,47.17
2019-02-18T15:09:25.087Z,44.40
2019-02-18T15:10:56.986Z,50.12
2019-02-18T15:12:33.041Z,52.13
2019-02-18T15:14:02.972Z,51.95
2019-02-18T15:15:35.031Z,52.33
2019-02-18T15:17:07.317Z,54.27
2019-02-18T15:18:39.247Z,52.35
2019-02-18T15:20:11.660Z,50.35
2019-02-18T15:21:45.101Z,45.73
2019-02-18T15:23:17.009Z,56.70
2019-02-18T15:24:49.052Z,56.42
2019-02-18T15:26:20.934Z,55.03
2019-02-18T15:27:52.858Z,54.45
2019-02-18T15:29:24.808Z,39.70
2019-02-18T15:30:56.967Z,45.95
2019-02-18T15:32:28.822Z,50.55
2019-02-18T15:34:00.730Z,44.58
2019-02-18T15:35:33.150Z,45.70
2019-02-18T15:37:05.140Z,52.88
2019-02-18T15:38:37.083Z,68.47
2019-02-18T15:40:09.291Z,84.20
2019-02-18T15:41:41.206Z,88.97
2019-02-18T15:43:16.205Z,63.08
2019-02-18T15:44:48.149Z,57.17
2019-02-18T15:46:20.067Z,169.35
2019-02-18T15:47:52.005Z,146.37
2019-02-18T15:49:24.434Z,86.80
2019-02-18T15:50:56.343Z,77.90
2019-02-18T15:52:28.258Z,64.32
2019-02-18T15:54:00.171Z,101.22
2019-02-18T15:55:32.443Z,127.07
2019-02-18T15:57:04.346Z,136.22
2019-02-18T15:58:36.398Z,116.95
2019-02-18T16:00:08.356Z,84.85
2019-02-18T16:01:40.370Z,73.42
2019-02-18T16:03:12.338Z,74.32
2019-02-18T16:04:44.248Z,93.42
2019-02-18T16:06:16.202Z,102.00
2019-02-18T16:07:48.199Z,225.55
2019-02-18T16:09:20.406Z,497.60
2019-02-18T16:10:52.331Z,214.12
2019-02-18T16:12:24.207Z,101.12
2019-02-18T16:13:56.428Z,89.62
2019-02-18T16:15:29.349Z,104.58
2019-02-18T16:17:01.259Z,109.20
2019-02-18T16:18:33.204Z,114.90
2019-02-18T16:20:05.303Z,100.92
2019-02-18T16:21:37.241Z,134.15
2019-02-18T16:23:09.168Z,86.47
2019-02-18T16:24:41.062Z,63.50
2019-02-18T16:26:13.229Z,90.42
2019-02-18T16:27:45.203Z,70.17
2019-02-18T16:29:17.184Z,97.45
2019-02-18T16:30:49.065Z,115.70
2019-02-18T16:32:21.369Z,89.05
2019-02-18T16:33:53.322Z,105.22
2019-02-18T16:35:25.215Z,93.87
2019-02-18T16:36:57.156Z,108.25
2019-02-18T16:38:29.233Z,129.53
2019-02-18T16:40:01.155Z,106.78
2019-02-18T16:41:33.076Z,103.20
2019-02-18T16:43:05.344Z,94.60
2019-02-18T16:44:37.354Z,106.05
2019-02-18T16:46:09.282Z,103.35
2019-02-18T16:47:41.818Z,103.95
2019-02-18T16:49:13.699Z,102.02
2019-02-18T16:50:45.919Z,100.62
2019-02-18T16:52:17.862Z,254.32
2019-02-18T16:53:49.834Z,363.40
2019-02-18T16:55:21.766Z,221.97
2019-02-18T16:56:54.278Z,112.95
2019-02-18T16:58:26.150Z,115.35
2019-02-18T16:59:58.095Z,141.45
2019-02-18T17:01:30.335Z,179.15
2019-02-18T17:03:02.404Z,185.60
2019-02-18T17:04:34.298Z,194.75
2019-02-18T17:06:06.553Z,261.15
2019-02-18T17:07:38.452Z,262.85
2019-02-18T17:09:10.485Z,344.77
2019-02-18T17:10:43.077Z,269.68
2019-02-18T17:12:14.967Z,227.65
2019-02-18T17:13:46.903Z,197.70
2019-02-18T17:15:19.279Z,194.75
2019-02-18T17:16:51.173Z,189.82
2019-02-18T17:18:23.076Z,268.12
2019-02-18T17:19:55.603Z,364.63
2019-02-18T17:21:27.733Z,362.00
2019-02-18T17:22:59.642Z,339.15
2019-02-18T17:24:31.843Z,338.60
2019-02-18T17:26:03.809Z,299.83
2019-02-18T17:27:35.994Z,223.30
2019-02-18T17:29:08.503Z,193.57
2019-02-18T17:30:40.497Z,200.60
2019-02-18T17:32:12.450Z,193.05
2019-02-18T17:33:45.012Z,189.57
2019-02-18T17:35:16.873Z,164.05
2019-02-18T17:36:48.782Z,209.60
2019-02-18T17:38:21.326Z,664.27
2019-02-18T17:39:53.534Z,150.68
2019-02-18T17:41:25.433Z,332.52
2019-02-18T17:42:57.721Z,144.90
2019-02-18T17:44:29.661Z,134.70
2019-02-18T17:46:01.664Z,117.93
2019-02-18T17:47:33.852Z,132.70
2019-02-18T17:49:07.838Z,130.03
2019-02-18T17:50:39.754Z,120.92
2019-02-18T17:52:11.757Z,132.55
2019-02-18T17:53:43.654Z,129.40
2019-02-18T17:55:15.539Z,126.33
2019-02-18T17:56:48.755Z,131.32
2019-02-18T17:58:21.016Z,123.75
2019-02-18T17:59:52.916Z,117.42
2019-02-18T18:01:24.775Z,136.72
2019-02-18T18:02:56.712Z,159.95
2019-02-18T18:04:28.825Z,110.45
2019-02-18T18:06:00.714Z,102.42
2019-02-18T18:07:32.622Z,87.37
2019-02-18T18:09:04.576Z,63.52
2019-02-18T18:10:36.649Z,65.25
2019-02-18T18:12:08.559Z,73.02
2019-02-18T18:13:40.665Z,66.50
2019-02-18T18:15:12.566Z,74.97
2019-02-18T18:16:44.449Z,67.58
2019-02-18T18:18:16.365Z,73.17
2019-02-18T18:19:48.574Z,79.82
2019-02-18T18:21:20.537Z,86.87
2019-02-18T18:22:52.495Z,102.85
2019-02-18T18:24:24.377Z,81.45
2019-02-18T18:25:56.376Z,77.75
2019-02-18T18:27:28.264Z,75.17
2019-02-18T18:29:00.383Z,103.38
2019-02-18T18:30:32.301Z,78.97
2019-02-18T18:32:04.189Z,83.75
2019-02-18T18:33:36.071Z,104.40
2019-02-18T18:35:08.114Z,167.07
2019-02-18T18:36:40.019Z,75.55
2019-02-18T18:38:11.913Z,101.90
2019-02-18T18:39:43.809Z,70.00
2019-02-18T18:41:15.485Z,62.40
2019-02-18T18:42:47.384Z,65.80
2019-02-18T18:44:19.553Z,76.82
2019-02-18T18:45:51.464Z,68.80
2019-02-18T18:47:22.854Z,73.63
2019-02-18T18:48:54.153Z,75.17
2019-02-18T18:50:25.569Z,83.23
2019-02-18T18:51:57.497Z,95.92
2019-02-18T18:53:30.221Z,100.65
2019-02-18T18:55:02.139Z,98.30
2019-02-18T18:56:34.282Z,92.45
2019-02-18T18:58:06.194Z,87.37
2019-02-18T18:59:37.498Z,96.57
2019-02-18T19:01:09.388Z,90.55
2019-02-18T19:02:41.420Z,115.70
2019-02-18T19:04:13.641Z,226.60
2019-02-18T19:05:47.856Z,209.90
2019-02-18T19:07:19.755Z,230.27
2019-02-18T19:08:51.983Z,236.90
2019-02-18T19:10:23.299Z,162.67
2019-02-18T19:11:55.176Z,142.70
2019-02-18T19:13:27.058Z,142.15
2019-02-18T19:14:59.181Z,124.58
2019-02-18T19:16:31.067Z,155.05
2019-02-18T19:18:02.387Z,149.20
2019-02-18T19:19:34.284Z,141.90
2019-02-18T19:21:06.336Z,153.82
2019-02-18T19:22:38.256Z,417.53
2019-02-18T19:24:10.193Z,473.80
2019-02-18T19:25:41.523Z,459.53
2019-02-18T19:27:13.084Z,586.43
2019-02-18T19:28:46.525Z,550.05
2019-02-18T19:30:17.932Z,558.07
2019-02-18T19:31:49.707Z,482.23
2019-02-18T19:33:22.133Z,413.57
2019-02-18T19:34:54.038Z,251.02
2019-02-18T19:36:26.708Z,162.05
2019-02-18T19:37:58.656Z,170.92